Ana Sayfa
METAR-TAF:

METAR-TAF

Havaalanları :

Aeroflex-Andover Airport

Andover, New Jersey, Amerika Birleşik Devletleri

Enlem: 41-00-32N, Boylam: 074-44-12W, yükseklik: 177 m

Güncel hava durumu gözlemi

Rapor saat 17:54 UTC de 46 dakika önce yapıldı.
Rüzgar güney/güneybatıdan 7 kt, güney/güneydoğu ve güneybatı arasında değişken
Sıcaklık 11°C
Nem 94%
Basınç 1009 hPa

METAR: K12N 101754Z AUTO 20007KT 150V230 11/10 A2979 RMK AO1 SLP089 P0002 60002 T01110100 10117 20106 58005

Saat: 13:40 (18:40 UTC)


TAF: eksik

4.000'den fazla havaalanı için hava durumu gözlemleri ve tahminleri (METAR ve TAF raporları).

Kullanılabilir istasyonlar harita üzerinde sarı ve kırmızı noktalarla gösterilir.

İstasyonun adını görmek için fareyi noktanın üzerinde gezdirin.

Sonrasında hava gözlem ve tahminlerini görmek için tıklayın.

Haritayı değiştirmek için: yaklaştırmak için siyah artı işaretli yeşil düğmeye ve uzaklaştırmak için de eksi işaretli düğmeye hızla tıklayın; bitişik haritalar için yeşil okları kullanın.


METAR-TAF: